KMVY Airport (Martha's Vineyard) Information

FAA: MVY - ICAO: KMVY

KMVY Airport Location

State Massachusetts
County Dukes
City Vineyard Haven
KMVY Airport is 3 miles south of Vineyard Haven, MA.
Latitude 41-23-36.3030N
Longitude 070-36-49.9480W
Elevation 66ft

KMVY Airport METARs

METAR KMVY 240800Z AUTO 14013G21KT 9SM FEW005 FEW080 BKN090 22/22 A3004 RMK AO2 T02220217
Altimeter 30.04"
Temperature 22.2°C (72.0°F)
Wind 140° at 13KT with gusts to 21KT
Clouds few at 500ft few at 8,000ft broken at 9,000ft
Visibility 9.0mi
Time observed: 2021-09-24T08:00:00Z

KMVY Airport Details

Status Operational
Activation July 1974
Ownership Public
Usage Public
Chart NEW YORK
ATC on-site Yes
Beacon schedule sunset-sunrise
Beacon color clear green

KMVY Airport Contacts

Owner COUNTY OF DUKES COUNTY
Owner address 71 AIRPORT ROAD, 71 AIRPORT RAOD, VINEYARD HAVEN, MA 02568
Owner phone 5086937022
Manager THOMAS LYNCH
Manager address 759 CHESTNUT ST, SPRINGFIELD, MA 01199
Manager phone (413) 794-5527

KMVY Airport (Martha's Vineyard) Radio Frequencies

KMVY (Airport) Radio Frequencies

UNICOM 122.95
Common traffic advisory frequency (CTAF) 121.4